createdAt,value
2018-08-02T00:01:01.228Z,4.40
2018-08-02T00:06:05.468Z,4.70
2018-08-02T00:11:09.478Z,4.10
2018-08-02T00:16:13.241Z,3.43
2018-08-02T00:21:17.464Z,3.70
2018-08-02T00:26:21.051Z,3.70
2018-08-02T00:31:24.962Z,3.57
2018-08-02T00:36:28.591Z,3.87
2018-08-02T00:41:32.230Z,3.63
2018-08-02T00:46:36.635Z,4.37
2018-08-02T00:51:40.494Z,4.30
2018-08-02T00:56:44.229Z,4.80
2018-08-02T01:01:47.815Z,4.10
2018-08-02T01:06:51.622Z,3.83
2018-08-02T01:11:55.150Z,3.20
2018-08-02T01:16:58.758Z,3.50
2018-08-02T01:22:03.318Z,4.27
2018-08-02T01:27:07.209Z,3.53
2018-08-02T01:32:10.730Z,3.27
2018-08-02T01:37:14.310Z,3.33
2018-08-02T01:42:19.083Z,3.57
2018-08-02T01:47:25.538Z,3.23
2018-08-02T01:52:29.177Z,3.43
2018-08-02T01:57:32.752Z,3.23
2018-08-02T02:02:43.992Z,3.60
2018-08-02T02:07:47.871Z,3.50
2018-08-02T02:12:51.470Z,3.80
2018-08-02T02:17:55.443Z,3.67
2018-08-02T02:22:59.044Z,4.37
2018-08-02T02:28:07.819Z,3.83
2018-08-02T02:33:11.875Z,4.83
2018-08-02T02:38:16.425Z,4.57
2018-08-02T02:43:20.360Z,4.60
2018-08-02T02:48:23.966Z,4.70
2018-08-02T02:53:27.519Z,4.73
2018-08-02T02:58:31.448Z,4.43
2018-08-02T03:03:35.495Z,4.77
2018-08-02T03:08:40.497Z,4.80
2018-08-02T03:13:44.105Z,5.03
2018-08-02T03:18:47.698Z,4.80
2018-08-02T03:23:50.902Z,4.90
2018-08-02T03:28:54.466Z,4.60
2018-08-02T03:34:04.040Z,4.67
2018-08-02T03:39:09.421Z,4.77
2018-08-02T03:44:13.296Z,6.40
2018-08-02T03:49:16.867Z,4.93
2018-08-02T03:54:20.492Z,5.30
2018-08-02T03:59:26.544Z,5.40
2018-08-02T04:04:30.519Z,5.07
2018-08-02T04:09:34.107Z,5.20
2018-08-02T04:14:39.528Z,5.37
2018-08-02T04:19:43.391Z,5.70
2018-08-02T04:24:46.977Z,5.30
2018-08-02T04:29:50.864Z,6.33
2018-08-02T04:34:55.576Z,5.90
2018-08-02T04:39:59.116Z,5.60
2018-08-02T04:45:02.799Z,5.60
2018-08-02T04:50:07.051Z,5.83
2018-08-02T04:55:10.707Z,5.60
2018-08-02T05:00:15.307Z,5.83
2018-08-02T05:05:18.850Z,4.73
2018-08-02T05:10:22.418Z,4.80
2018-08-02T05:15:26.022Z,5.30
2018-08-02T05:20:29.571Z,5.70
2018-08-02T05:25:33.107Z,5.63
2018-08-02T05:30:36.683Z,5.40
2018-08-02T05:35:40.795Z,5.43
2018-08-02T05:40:44.236Z,6.00
2018-08-02T05:45:47.820Z,5.50
2018-08-02T05:50:51.373Z,5.33
2018-08-02T05:55:54.916Z,5.37
2018-08-02T06:00:58.822Z,5.70
2018-08-02T06:06:02.412Z,5.40
2018-08-02T06:11:06.231Z,5.53
2018-08-02T06:16:09.469Z,4.97
2018-08-02T06:21:13.380Z,5.13
2018-08-02T06:26:17.164Z,4.90
2018-08-02T06:31:21.060Z,5.80
2018-08-02T06:36:24.984Z,4.70
2018-08-02T06:41:28.593Z,5.03
2018-08-02T06:46:32.284Z,4.93
2018-08-02T06:51:36.097Z,4.27
2018-08-02T06:56:39.662Z,4.93
2018-08-02T07:01:43.205Z,4.03
2018-08-02T07:06:46.768Z,4.43
2018-08-02T07:11:50.423Z,4.23
2018-08-02T07:16:53.650Z,4.00
2018-08-02T07:21:57.224Z,4.67
2018-08-02T07:27:00.762Z,4.67
2018-08-02T07:32:04.810Z,4.30
2018-08-02T07:37:08.392Z,5.00
2018-08-02T07:42:11.967Z,4.53
2018-08-02T07:47:15.599Z,4.30
2018-08-02T07:52:19.168Z,4.50
2018-08-02T07:57:23.496Z,4.47
2018-08-02T08:02:27.064Z,4.80
2018-08-02T08:07:30.651Z,5.30
2018-08-02T08:12:37.160Z,4.10
2018-08-02T08:17:40.782Z,4.03
2018-08-02T08:22:44.829Z,4.10
2018-08-02T08:27:48.361Z,4.60
2018-08-02T08:32:52.501Z,4.80
2018-08-02T08:37:56.110Z,4.70
2018-08-02T08:43:00.206Z,4.50
2018-08-02T08:48:03.817Z,4.83
2018-08-02T08:53:07.678Z,4.70
2018-08-02T08:58:11.809Z,5.40
2018-08-02T09:03:16.714Z,4.70
2018-08-02T09:08:20.883Z,5.63
2018-08-02T09:13:24.690Z,5.50
2018-08-02T09:18:28.298Z,5.17
2018-08-02T09:23:31.912Z,4.70
2018-08-02T09:28:39.942Z,5.37
2018-08-02T09:33:43.492Z,5.63
2018-08-02T09:38:47.031Z,5.03
2018-08-02T09:43:50.620Z,4.90
2018-08-02T09:48:55.338Z,4.77
2018-08-02T09:53:58.887Z,5.13
2018-08-02T09:59:03.594Z,4.40
2018-08-02T10:04:07.284Z,4.80
2018-08-02T10:09:12.489Z,4.50
2018-08-02T10:14:17.947Z,5.00
2018-08-02T10:19:21.836Z,4.40
2018-08-02T10:24:25.421Z,4.20
2018-08-02T10:29:29.010Z,4.50
2018-08-02T10:34:32.256Z,4.70
2018-08-02T10:39:35.822Z,4.40
2018-08-02T10:44:40.166Z,3.90
2018-08-02T10:49:44.689Z,4.17
2018-08-02T10:54:48.350Z,3.43
2018-08-02T10:59:51.950Z,3.60
2018-08-02T11:04:55.502Z,3.30
2018-08-02T11:10:00.000Z,3.57
2018-08-02T11:15:03.762Z,3.37
2018-08-02T11:20:07.312Z,3.80
2018-08-02T11:25:10.870Z,3.40
2018-08-02T11:30:14.395Z,3.37
2018-08-02T11:35:17.914Z,2.80
2018-08-02T11:40:22.408Z,2.43
2018-08-02T11:45:25.960Z,3.00
2018-08-02T11:50:29.514Z,3.00
2018-08-02T11:55:33.663Z,2.80
2018-08-02T12:00:37.215Z,2.90
2018-08-02T12:05:42.656Z,2.93
2018-08-02T12:10:46.487Z,3.10
2018-08-02T12:15:51.246Z,3.90
2018-08-02T12:20:54.907Z,4.27
2018-08-02T12:25:58.511Z,4.00
2018-08-02T12:31:02.953Z,3.97
2018-08-02T12:36:06.495Z,3.63
2018-08-02T12:41:11.996Z,4.17
2018-08-02T12:46:15.574Z,4.00
2018-08-02T12:51:20.959Z,3.70
2018-08-02T12:56:24.542Z,3.40
2018-08-02T13:01:28.919Z,3.40
2018-08-02T13:06:32.527Z,3.70
2018-08-02T13:11:36.808Z,3.40
2018-08-02T13:16:40.360Z,3.50
2018-08-02T13:21:43.915Z,3.50
2018-08-02T13:26:47.478Z,3.90
2018-08-02T13:31:51.108Z,3.90
2018-08-02T13:36:55.466Z,3.20
2018-08-02T13:41:59.080Z,3.40
2018-08-02T13:47:02.658Z,3.33
2018-08-02T13:52:07.307Z,2.90
2018-08-02T13:57:10.866Z,3.20
2018-08-02T14:02:16.627Z,3.30
2018-08-02T14:07:20.210Z,3.20
2018-08-02T14:12:23.791Z,3.60
2018-08-02T14:17:27.498Z,3.80
2018-08-02T14:22:31.465Z,3.90
2018-08-02T14:27:34.863Z,3.90
2018-08-02T14:32:38.392Z,3.50
2018-08-02T14:37:41.935Z,3.67
2018-08-02T14:42:45.515Z,4.40
2018-08-02T14:47:49.467Z,4.30
2018-08-02T14:52:53.464Z,3.77
2018-08-02T14:57:57.375Z,3.50
2018-08-02T15:03:00.950Z,8.60
2018-08-02T15:08:04.676Z,3.40
2018-08-02T15:13:08.324Z,2.90
2018-08-02T15:18:11.920Z,3.07
2018-08-02T15:23:15.480Z,3.50
2018-08-02T15:28:20.343Z,3.67
2018-08-02T15:33:24.558Z,3.40
2018-08-02T15:38:28.555Z,3.70
2018-08-02T15:43:32.127Z,3.40
2018-08-02T15:48:35.672Z,3.73
2018-08-02T15:53:39.213Z,3.87
2018-08-02T15:58:42.752Z,3.60
2018-08-02T16:03:46.560Z,3.67
2018-08-02T16:08:50.268Z,3.43
2018-08-02T16:13:53.802Z,4.30
2018-08-02T16:18:57.322Z,3.67
2018-08-02T16:24:00.889Z,3.40
2018-08-02T16:29:06.360Z,3.53
2018-08-02T16:34:10.179Z,3.30
2018-08-02T16:39:13.735Z,3.50
2018-08-02T16:44:18.806Z,4.40
2018-08-02T16:49:28.668Z,4.43
2018-08-02T16:54:32.222Z,4.80
2018-08-02T16:59:35.758Z,5.47
2018-08-02T17:04:39.588Z,4.77
2018-08-02T17:09:43.214Z,4.50
2018-08-02T17:14:47.543Z,5.97
2018-08-02T17:19:51.050Z,7.67
2018-08-02T17:24:55.169Z,15.20
2018-08-02T17:29:58.947Z,5.33
2018-08-02T17:35:02.483Z,7.23
2018-08-02T17:40:06.135Z,6.00
2018-08-02T17:45:10.276Z,4.93
2018-08-02T17:50:14.037Z,5.10
2018-08-02T17:55:17.588Z,5.90
2018-08-02T18:00:21.129Z,5.17
2018-08-02T18:05:25.127Z,5.80
2018-08-02T18:10:28.678Z,7.37
2018-08-02T18:15:32.295Z,5.90
2018-08-02T18:20:36.030Z,5.97
2018-08-02T18:25:39.844Z,5.90
2018-08-02T18:30:43.560Z,5.63
2018-08-02T18:35:46.980Z,4.90
2018-08-02T18:40:50.333Z,5.07
2018-08-02T18:45:54.184Z,5.03
2018-08-02T18:50:57.735Z,5.40
2018-08-02T18:56:01.291Z,4.70
2018-08-02T19:01:05.099Z,5.30
2018-08-02T19:06:08.743Z,5.30
2018-08-02T19:11:12.320Z,5.67
2018-08-02T19:16:16.007Z,5.77
2018-08-02T19:21:19.565Z,7.07
2018-08-02T19:26:23.098Z,6.60
2018-08-02T19:31:26.739Z,6.97
2018-08-02T19:36:30.296Z,6.97
2018-08-02T19:41:55.146Z,7.13
2018-08-02T19:46:59.275Z,7.40
2018-08-02T19:52:06.259Z,7.47
2018-08-02T19:57:10.185Z,7.40
2018-08-02T20:02:13.908Z,7.80
2018-08-02T20:07:17.439Z,7.90
2018-08-02T20:12:21.088Z,7.43
2018-08-02T20:17:24.852Z,7.60
2018-08-02T20:22:28.398Z,7.80
2018-08-02T20:27:31.991Z,8.37
2018-08-02T20:32:35.512Z,8.33
2018-08-02T20:37:39.085Z,7.70
2018-08-02T20:42:46.342Z,7.07
2018-08-02T20:47:49.951Z,8.00
2018-08-02T20:52:53.572Z,7.00
2018-08-02T20:57:57.392Z,6.97
2018-08-02T21:03:02.648Z,6.80
2018-08-02T21:08:06.209Z,6.10
2018-08-02T21:13:09.874Z,6.73
2018-08-02T21:18:13.379Z,6.00
2018-08-02T21:23:16.944Z,5.67
2018-08-02T21:28:20.479Z,5.97
2018-08-02T21:33:24.266Z,6.33
2018-08-02T21:38:28.479Z,6.77
2018-08-02T21:43:32.320Z,6.50
2018-08-02T21:48:36.581Z,6.50
2018-08-02T21:53:39.822Z,6.30
2018-08-02T21:58:43.339Z,6.57
2018-08-02T22:03:46.895Z,7.60
2018-08-02T22:08:50.748Z,6.77
2018-08-02T22:13:55.378Z,6.50
2018-08-02T22:18:58.951Z,6.57
2018-08-02T22:24:02.498Z,6.40
2018-08-02T22:29:06.725Z,6.57
2018-08-02T22:34:10.257Z,6.60
2018-08-02T22:39:13.798Z,8.20
2018-08-02T22:44:17.458Z,6.90
2018-08-02T22:49:21.010Z,6.67
2018-08-02T22:54:24.604Z,6.90
2018-08-02T22:59:29.129Z,7.13
2018-08-02T23:04:32.726Z,7.03
2018-08-02T23:09:37.006Z,7.50
2018-08-02T23:14:41.028Z,7.13
2018-08-02T23:19:44.603Z,7.37
2018-08-02T23:24:48.350Z,7.10
2018-08-02T23:29:51.890Z,7.20
2018-08-02T23:34:55.464Z,7.07
2018-08-02T23:39:59.161Z,8.00
2018-08-02T23:45:04.807Z,7.50
2018-08-02T23:50:08.489Z,7.67
2018-08-02T23:55:12.396Z,8.60
